sensor_id;sensor_type;location;lat;lon;timestamp;P1;durP1;ratioP1;P2;durP2;ratioP2
31728;SDS011;18309;43.658;1.312;2023-04-15T00:00:14;49.42;;;7.35;;
31728;SDS011;18309;43.658;1.312;2023-04-15T00:02:40;51.50;;;6.63;;
31728;SDS011;18309;43.658;1.312;2023-04-15T00:05:06;56.15;;;7.57;;
31728;SDS011;18309;43.658;1.312;2023-04-15T00:07:32;47.38;;;6.72;;
31728;SDS011;18309;43.658;1.312;2023-04-15T00:09:58;53.63;;;7.15;;
31728;SDS011;18309;43.658;1.312;2023-04-15T00:12:27;57.30;;;7.03;;
31728;SDS011;18309;43.658;1.312;2023-04-15T00:14:52;43.45;;;6.05;;
31728;SDS011;18309;43.658;1.312;2023-04-15T00:17:19;47.65;;;6.45;;
31728;SDS011;18309;43.658;1.312;2023-04-15T00:19:45;50.90;;;6.93;;
31728;SDS011;18309;43.658;1.312;2023-04-15T00:22:13;53.35;;;6.35;;
31728;SDS011;18309;43.658;1.312;2023-04-15T00:24:38;49.53;;;7.70;;
31728;SDS011;18309;43.658;1.312;2023-04-15T00:27:04;51.88;;;7.47;;
31728;SDS011;18309;43.658;1.312;2023-04-15T00:29:30;65.00;;;7.78;;
31728;SDS011;18309;43.658;1.312;2023-04-15T00:31:58;50.15;;;7.43;;
31728;SDS011;18309;43.658;1.312;2023-04-15T00:34:23;45.58;;;6.47;;
31728;SDS011;18309;43.658;1.312;2023-04-15T00:36:49;39.03;;;6.97;;
31728;SDS011;18309;43.658;1.312;2023-04-15T00:39:18;58.17;;;7.25;;
31728;SDS011;18309;43.658;1.312;2023-04-15T00:41:44;54.22;;;6.30;;
31728;SDS011;18309;43.658;1.312;2023-04-15T00:44:10;54.97;;;7.30;;
31728;SDS011;18309;43.658;1.312;2023-04-15T00:46:37;52.00;;;7.43;;
31728;SDS011;18309;43.658;1.312;2023-04-15T00:49:05;49.13;;;7.05;;
31728;SDS011;18309;43.658;1.312;2023-04-15T00:51:32;47.22;;;6.82;;
31728;SDS011;18309;43.658;1.312;2023-04-15T00:54:04;48.80;;;7.28;;
31728;SDS011;18309;43.658;1.312;2023-04-15T00:56:31;46.17;;;6.80;;
31728;SDS011;18309;43.658;1.312;2023-04-15T00:59:00;48.97;;;6.07;;
31728;SDS011;18309;43.658;1.312;2023-04-15T01:01:26;43.45;;;6.00;;
31728;SDS011;18309;43.658;1.312;2023-04-15T01:03:52;49.15;;;6.03;;
31728;SDS011;18309;43.658;1.312;2023-04-15T01:06:19;53.55;;;7.13;;
31728;SDS011;18309;43.658;1.312;2023-04-15T01:08:45;43.33;;;5.85;;
31728;SDS011;18309;43.658;1.312;2023-04-15T01:11:11;37.65;;;5.40;;
31728;SDS011;18309;43.658;1.312;2023-04-15T01:13:39;43.10;;;6.25;;
31728;SDS011;18309;43.658;1.312;2023-04-15T01:16:06;45.85;;;6.70;;
31728;SDS011;18309;43.658;1.312;2023-04-15T01:18:32;47.47;;;6.25;;
31728;SDS011;18309;43.658;1.312;2023-04-15T01:21:02;51.78;;;7.15;;
31728;SDS011;18309;43.658;1.312;2023-04-15T01:23:29;60.20;;;6.28;;
31728;SDS011;18309;43.658;1.312;2023-04-15T01:25:55;40.35;;;5.88;;
31728;SDS011;18309;43.658;1.312;2023-04-15T01:28:22;49.45;;;6.00;;
31728;SDS011;18309;43.658;1.312;2023-04-15T01:30:49;39.35;;;5.05;;
31728;SDS011;18309;43.658;1.312;2023-04-15T01:33:15;39.20;;;5.28;;
31728;SDS011;18309;43.658;1.312;2023-04-15T01:35:41;34.17;;;4.55;;
31728;SDS011;18309;43.658;1.312;2023-04-15T01:38:08;38.15;;;5.25;;
31728;SDS011;18309;43.658;1.312;2023-04-15T01:40:35;36.22;;;5.22;;
31728;SDS011;18309;43.658;1.312;2023-04-15T01:43:01;38.42;;;4.50;;
31728;SDS011;18309;43.658;1.312;2023-04-15T01:45:27;35.58;;;4.35;;
31728;SDS011;18309;43.658;1.312;2023-04-15T01:47:54;37.72;;;5.68;;
31728;SDS011;18309;43.658;1.312;2023-04-15T01:50:19;18.25;;;3.40;;
31728;SDS011;18309;43.658;1.312;2023-04-15T01:52:46;29.15;;;3.67;;
31728;SDS011;18309;43.658;1.312;2023-04-15T01:55:12;27.08;;;3.75;;
31728;SDS011;18309;43.658;1.312;2023-04-15T01:57:38;25.27;;;3.28;;
31728;SDS011;18309;43.658;1.312;2023-04-15T02:00:05;28.70;;;3.60;;
31728;SDS011;18309;43.658;1.312;2023-04-15T02:02:34;26.92;;;3.92;;
31728;SDS011;18309;43.658;1.312;2023-04-15T02:05:00;30.35;;;3.78;;
31728;SDS011;18309;43.658;1.312;2023-04-15T02:07:25;27.55;;;3.50;;
31728;SDS011;18309;43.658;1.312;2023-04-15T02:09:52;29.67;;;3.55;;
31728;SDS011;18309;43.658;1.312;2023-04-15T02:12:18;32.60;;;3.67;;
31728;SDS011;18309;43.658;1.312;2023-04-15T02:14:44;21.73;;;3.35;;
31728;SDS011;18309;43.658;1.312;2023-04-15T02:17:09;27.10;;;3.28;;
31728;SDS011;18309;43.658;1.312;2023-04-15T02:19:35;25.50;;;3.33;;
31728;SDS011;18309;43.658;1.312;2023-04-15T02:22:01;34.08;;;3.83;;
31728;SDS011;18309;43.658;1.312;2023-04-15T02:24:28;21.73;;;3.72;;
31728;SDS011;18309;43.658;1.312;2023-04-15T02:26:54;17.83;;;3.22;;
31728;SDS011;18309;43.658;1.312;2023-04-15T02:29:20;23.70;;;3.28;;
31728;SDS011;18309;43.658;1.312;2023-04-15T02:31:47;30.02;;;3.22;;
31728;SDS011;18309;43.658;1.312;2023-04-15T02:34:13;21.65;;;3.65;;
31728;SDS011;18309;43.658;1.312;2023-04-15T02:36:39;28.45;;;3.70;;
31728;SDS011;18309;43.658;1.312;2023-04-15T02:39:05;26.80;;;3.85;;
31728;SDS011;18309;43.658;1.312;2023-04-15T02:41:31;24.30;;;4.35;;
31728;SDS011;18309;43.658;1.312;2023-04-15T02:43:57;30.65;;;3.60;;
31728;SDS011;18309;43.658;1.312;2023-04-15T02:46:22;23.58;;;3.53;;
31728;SDS011;18309;43.658;1.312;2023-04-15T02:48:48;24.40;;;3.72;;
31728;SDS011;18309;43.658;1.312;2023-04-15T02:51:16;35.22;;;3.55;;
31728;SDS011;18309;43.658;1.312;2023-04-15T02:53:44;33.58;;;4.10;;
31728;SDS011;18309;43.658;1.312;2023-04-15T02:56:10;31.00;;;4.97;;
31728;SDS011;18309;43.658;1.312;2023-04-15T02:58:36;23.90;;;4.03;;
31728;SDS011;18309;43.658;1.312;2023-04-15T03:01:03;35.13;;;4.40;;
31728;SDS011;18309;43.658;1.312;2023-04-15T03:03:29;36.42;;;3.95;;
31728;SDS011;18309;43.658;1.312;2023-04-15T03:05:55;22.13;;;3.10;;
31728;SDS011;18309;43.658;1.312;2023-04-15T03:08:20;23.95;;;3.60;;
31728;SDS011;18309;43.658;1.312;2023-04-15T03:10:46;14.50;;;2.50;;
31728;SDS011;18309;43.658;1.312;2023-04-15T03:13:13;23.05;;;3.10;;
31728;SDS011;18309;43.658;1.312;2023-04-15T03:15:38;11.60;;;1.88;;
31728;SDS011;18309;43.658;1.312;2023-04-15T03:18:04;20.05;;;2.25;;
31728;SDS011;18309;43.658;1.312;2023-04-15T03:20:30;10.27;;;1.80;;
31728;SDS011;18309;43.658;1.312;2023-04-15T03:22:56;12.25;;;2.10;;
31728;SDS011;18309;43.658;1.312;2023-04-15T03:25:21;12.82;;;2.83;;
31728;SDS011;18309;43.658;1.312;2023-04-15T03:27:47;10.05;;;1.38;;
31728;SDS011;18309;43.658;1.312;2023-04-15T03:30:13;14.48;;;2.42;;
31728;SDS011;18309;43.658;1.312;2023-04-15T03:32:38;15.38;;;2.55;;
31728;SDS011;18309;43.658;1.312;2023-04-15T03:35:04;16.35;;;2.47;;
31728;SDS011;18309;43.658;1.312;2023-04-15T03:37:30;11.73;;;1.92;;
31728;SDS011;18309;43.658;1.312;2023-04-15T03:39:56;16.52;;;2.47;;
31728;SDS011;18309;43.658;1.312;2023-04-15T03:42:22;21.30;;;2.67;;
31728;SDS011;18309;43.658;1.312;2023-04-15T03:44:48;28.30;;;3.60;;
31728;SDS011;18309;43.658;1.312;2023-04-15T03:47:13;19.40;;;3.28;;
31728;SDS011;18309;43.658;1.312;2023-04-15T03:49:39;26.05;;;2.95;;
31728;SDS011;18309;43.658;1.312;2023-04-15T03:52:05;20.85;;;2.50;;
31728;SDS011;18309;43.658;1.312;2023-04-15T03:54:31;16.02;;;2.63;;
31728;SDS011;18309;43.658;1.312;2023-04-15T03:56:57;21.90;;;2.60;;
31728;SDS011;18309;43.658;1.312;2023-04-15T03:59:23;17.58;;;2.97;;
31728;SDS011;18309;43.658;1.312;2023-04-15T04:01:48;23.02;;;2.72;;
31728;SDS011;18309;43.658;1.312;2023-04-15T04:04:15;21.52;;;3.40;;
31728;SDS011;18309;43.658;1.312;2023-04-15T04:06:41;21.20;;;3.00;;
31728;SDS011;18309;43.658;1.312;2023-04-15T04:09:06;20.33;;;3.40;;
31728;SDS011;18309;43.658;1.312;2023-04-15T04:11:32;25.40;;;3.58;;
31728;SDS011;18309;43.658;1.312;2023-04-15T04:13:58;28.60;;;2.95;;
31728;SDS011;18309;43.658;1.312;2023-04-15T04:16:23;23.33;;;3.55;;
31728;SDS011;18309;43.658;1.312;2023-04-15T04:18:50;20.73;;;3.08;;
31728;SDS011;18309;43.658;1.312;2023-04-15T04:21:16;17.55;;;3.08;;
31728;SDS011;18309;43.658;1.312;2023-04-15T04:23:42;20.48;;;2.97;;
31728;SDS011;18309;43.658;1.312;2023-04-15T04:26:07;24.40;;;3.00;;
31728;SDS011;18309;43.658;1.312;2023-04-15T04:28:33;26.40;;;4.03;;
31728;SDS011;18309;43.658;1.312;2023-04-15T04:31:00;35.92;;;3.58;;
31728;SDS011;18309;43.658;1.312;2023-04-15T04:33:27;30.00;;;4.63;;
31728;SDS011;18309;43.658;1.312;2023-04-15T04:35:52;25.73;;;3.83;;
31728;SDS011;18309;43.658;1.312;2023-04-15T04:38:18;26.50;;;3.17;;
31728;SDS011;18309;43.658;1.312;2023-04-15T04:40:44;34.83;;;3.83;;
31728;SDS011;18309;43.658;1.312;2023-04-15T04:43:09;31.38;;;4.35;;
31728;SDS011;18309;43.658;1.312;2023-04-15T04:45:35;32.38;;;4.18;;
31728;SDS011;18309;43.658;1.312;2023-04-15T04:48:01;32.97;;;3.90;;
31728;SDS011;18309;43.658;1.312;2023-04-15T04:50:30;29.75;;;3.67;;
31728;SDS011;18309;43.658;1.312;2023-04-15T04:52:56;26.70;;;3.85;;
31728;SDS011;18309;43.658;1.312;2023-04-15T04:55:22;24.80;;;3.05;;
31728;SDS011;18309;43.658;1.312;2023-04-15T04:57:48;27.95;;;4.25;;
31728;SDS011;18309;43.658;1.312;2023-04-15T05:00:13;27.60;;;3.97;;
31728;SDS011;18309;43.658;1.312;2023-04-15T05:02:40;27.48;;;4.00;;
31728;SDS011;18309;43.658;1.312;2023-04-15T05:05:08;30.92;;;4.00;;
31728;SDS011;18309;43.658;1.312;2023-04-15T05:07:34;26.27;;;4.75;;
31728;SDS011;18309;43.658;1.312;2023-04-15T05:10:00;27.45;;;4.20;;
31728;SDS011;18309;43.658;1.312;2023-04-15T05:12:25;26.15;;;4.00;;
31728;SDS011;18309;43.658;1.312;2023-04-15T05:14:51;31.98;;;4.32;;
31728;SDS011;18309;43.658;1.312;2023-04-15T05:17:17;28.00;;;3.38;;
31728;SDS011;18309;43.658;1.312;2023-04-15T05:19:43;29.95;;;3.80;;
31728;SDS011;18309;43.658;1.312;2023-04-15T05:22:08;26.27;;;3.65;;
31728;SDS011;18309;43.658;1.312;2023-04-15T05:24:34;24.02;;;2.75;;
31728;SDS011;18309;43.658;1.312;2023-04-15T05:27:00;19.48;;;3.28;;
31728;SDS011;18309;43.658;1.312;2023-04-15T05:29:26;26.38;;;2.70;;
31728;SDS011;18309;43.658;1.312;2023-04-15T05:31:51;32.58;;;4.45;;
31728;SDS011;18309;43.658;1.312;2023-04-15T05:34:17;17.98;;;2.67;;
31728;SDS011;18309;43.658;1.312;2023-04-15T05:36:43;16.65;;;2.67;;
31728;SDS011;18309;43.658;1.312;2023-04-15T05:39:08;20.27;;;2.55;;
31728;SDS011;18309;43.658;1.312;2023-04-15T05:41:34;20.83;;;2.83;;
31728;SDS011;18309;43.658;1.312;2023-04-15T05:44:00;19.23;;;2.17;;
31728;SDS011;18309;43.658;1.312;2023-04-15T05:46:26;22.90;;;2.63;;
31728;SDS011;18309;43.658;1.312;2023-04-15T05:48:52;21.67;;;2.65;;
31728;SDS011;18309;43.658;1.312;2023-04-15T05:51:18;18.23;;;2.28;;
31728;SDS011;18309;43.658;1.312;2023-04-15T05:53:44;24.73;;;2.55;;
31728;SDS011;18309;43.658;1.312;2023-04-15T05:56:11;18.00;;;2.30;;
31728;SDS011;18309;43.658;1.312;2023-04-15T05:58:37;18.95;;;1.77;;
31728;SDS011;18309;43.658;1.312;2023-04-15T06:01:02;13.13;;;1.80;;
31728;SDS011;18309;43.658;1.312;2023-04-15T06:03:28;13.95;;;1.90;;
31728;SDS011;18309;43.658;1.312;2023-04-15T06:05:54;17.15;;;2.42;;
31728;SDS011;18309;43.658;1.312;2023-04-15T06:08:20;16.95;;;2.22;;
31728;SDS011;18309;43.658;1.312;2023-04-15T06:10:46;10.35;;;1.67;;
31728;SDS011;18309;43.658;1.312;2023-04-15T06:13:12;13.70;;;1.98;;
31728;SDS011;18309;43.658;1.312;2023-04-15T06:15:38;12.68;;;1.30;;
31728;SDS011;18309;43.658;1.312;2023-04-15T06:18:04;11.75;;;1.35;;
31728;SDS011;18309;43.658;1.312;2023-04-15T06:20:30;8.50;;;1.55;;
31728;SDS011;18309;43.658;1.312;2023-04-15T06:22:56;11.40;;;1.35;;
31728;SDS011;18309;43.658;1.312;2023-04-15T06:25:22;20.23;;;2.65;;
31728;SDS011;18309;43.658;1.312;2023-04-15T06:27:48;13.60;;;2.17;;
31728;SDS011;18309;43.658;1.312;2023-04-15T06:30:14;6.15;;;1.33;;
31728;SDS011;18309;43.658;1.312;2023-04-15T06:32:41;3.45;;;0.80;;
31728;SDS011;18309;43.658;1.312;2023-04-15T06:35:07;2.83;;;0.40;;
31728;SDS011;18309;43.658;1.312;2023-04-15T06:37:33;7.25;;;0.63;;
31728;SDS011;18309;43.658;1.312;2023-04-15T06:39:58;3.80;;;0.40;;
31728;SDS011;18309;43.658;1.312;2023-04-15T06:42:24;2.92;;;0.43;;
31728;SDS011;18309;43.658;1.312;2023-04-15T06:44:50;2.28;;;0.57;;
31728;SDS011;18309;43.658;1.312;2023-04-15T06:47:16;6.32;;;0.98;;
31728;SDS011;18309;43.658;1.312;2023-04-15T06:49:41;3.25;;;0.52;;
31728;SDS011;18309;43.658;1.312;2023-04-15T06:52:07;6.60;;;0.70;;
31728;SDS011;18309;43.658;1.312;2023-04-15T06:54:34;6.68;;;0.50;;
31728;SDS011;18309;43.658;1.312;2023-04-15T06:57:01;11.55;;;1.25;;
31728;SDS011;18309;43.658;1.312;2023-04-15T06:59:27;4.82;;;0.77;;
31728;SDS011;18309;43.658;1.312;2023-04-15T07:01:53;5.68;;;0.85;;
31728;SDS011;18309;43.658;1.312;2023-04-15T07:04:19;11.15;;;1.00;;
31728;SDS011;18309;43.658;1.312;2023-04-15T07:06:45;7.97;;;1.40;;
31728;SDS011;18309;43.658;1.312;2023-04-15T07:09:10;8.63;;;1.23;;
31728;SDS011;18309;43.658;1.312;2023-04-15T07:11:36;8.55;;;1.45;;
31728;SDS011;18309;43.658;1.312;2023-04-15T07:14:02;7.32;;;1.30;;
31728;SDS011;18309;43.658;1.312;2023-04-15T07:16:28;14.07;;;1.30;;
31728;SDS011;18309;43.658;1.312;2023-04-15T07:18:54;7.70;;;1.33;;
31728;SDS011;18309;43.658;1.312;2023-04-15T07:21:20;14.38;;;1.70;;
31728;SDS011;18309;43.658;1.312;2023-04-15T07:23:45;12.48;;;1.13;;
31728;SDS011;18309;43.658;1.312;2023-04-15T07:26:11;9.13;;;1.42;;
31728;SDS011;18309;43.658;1.312;2023-04-15T07:28:37;10.15;;;1.48;;
31728;SDS011;18309;43.658;1.312;2023-04-15T07:31:03;9.60;;;1.00;;
31728;SDS011;18309;43.658;1.312;2023-04-15T07:33:29;16.65;;;2.28;;
31728;SDS011;18309;43.658;1.312;2023-04-15T07:35:55;8.60;;;1.50;;
31728;SDS011;18309;43.658;1.312;2023-04-15T07:38:21;10.52;;;1.30;;
31728;SDS011;18309;43.658;1.312;2023-04-15T07:40:47;9.23;;;1.27;;
31728;SDS011;18309;43.658;1.312;2023-04-15T07:43:13;15.13;;;1.80;;
31728;SDS011;18309;43.658;1.312;2023-04-15T07:45:39;13.68;;;1.65;;
31728;SDS011;18309;43.658;1.312;2023-04-15T07:48:05;11.20;;;1.63;;
31728;SDS011;18309;43.658;1.312;2023-04-15T07:50:32;10.82;;;1.52;;
31728;SDS011;18309;43.658;1.312;2023-04-15T07:52:57;7.35;;;1.42;;
31728;SDS011;18309;43.658;1.312;2023-04-15T07:55:23;19.63;;;1.92;;
31728;SDS011;18309;43.658;1.312;2023-04-15T07:57:49;17.90;;;2.58;;
31728;SDS011;18309;43.658;1.312;2023-04-15T08:00:15;17.27;;;1.40;;
31728;SDS011;18309;43.658;1.312;2023-04-15T08:02:41;13.30;;;1.77;;
31728;SDS011;18309;43.658;1.312;2023-04-15T08:05:08;17.05;;;2.08;;
31728;SDS011;18309;43.658;1.312;2023-04-15T08:07:35;25.75;;;3.10;;
31728;SDS011;18309;43.658;1.312;2023-04-15T08:10:02;11.07;;;1.60;;
31728;SDS011;18309;43.658;1.312;2023-04-15T08:12:28;17.55;;;1.85;;
31728;SDS011;18309;43.658;1.312;2023-04-15T08:14:54;14.98;;;2.05;;
31728;SDS011;18309;43.658;1.312;2023-04-15T08:17:20;11.20;;;1.67;;
31728;SDS011;18309;43.658;1.312;2023-04-15T08:19:46;15.25;;;2.25;;
31728;SDS011;18309;43.658;1.312;2023-04-15T08:22:12;10.35;;;1.50;;
31728;SDS011;18309;43.658;1.312;2023-04-15T08:24:38;15.68;;;1.98;;
31728;SDS011;18309;43.658;1.312;2023-04-15T08:27:04;18.67;;;1.80;;
31728;SDS011;18309;43.658;1.312;2023-04-15T08:29:30;16.75;;;2.45;;
31728;SDS011;18309;43.658;1.312;2023-04-15T08:31:58;12.73;;;1.83;;
31728;SDS011;18309;43.658;1.312;2023-04-15T08:34:24;14.40;;;1.48;;
31728;SDS011;18309;43.658;1.312;2023-04-15T08:36:50;16.90;;;1.67;;
31728;SDS011;18309;43.658;1.312;2023-04-15T08:39:16;16.08;;;1.77;;
31728;SDS011;18309;43.658;1.312;2023-04-15T08:41:46;16.92;;;2.13;;
31728;SDS011;18309;43.658;1.312;2023-04-15T08:44:15;9.65;;;1.40;;
31728;SDS011;18309;43.658;1.312;2023-04-15T08:46:42;21.52;;;3.38;;
31728;SDS011;18309;43.658;1.312;2023-04-15T08:49:11;13.68;;;1.95;;
31728;SDS011;18309;43.658;1.312;2023-04-15T08:51:40;9.30;;;1.45;;
31728;SDS011;18309;43.658;1.312;2023-04-15T08:54:09;12.93;;;1.95;;
31728;SDS011;18309;43.658;1.312;2023-04-15T08:56:36;18.42;;;2.22;;
31728;SDS011;18309;43.658;1.312;2023-04-15T08:59:03;18.33;;;2.22;;
31728;SDS011;18309;43.658;1.312;2023-04-15T09:01:29;13.15;;;1.80;;
31728;SDS011;18309;43.658;1.312;2023-04-15T09:03:56;21.92;;;2.63;;
31728;SDS011;18309;43.658;1.312;2023-04-15T09:06:22;14.00;;;2.15;;
31728;SDS011;18309;43.658;1.312;2023-04-15T09:08:50;13.80;;;1.70;;
31728;SDS011;18309;43.658;1.312;2023-04-15T09:11:16;16.15;;;2.08;;
31728;SDS011;18309;43.658;1.312;2023-04-15T09:13:43;14.00;;;1.63;;
31728;SDS011;18309;43.658;1.312;2023-04-15T09:16:08;27.25;;;2.83;;
31728;SDS011;18309;43.658;1.312;2023-04-15T09:18:35;15.07;;;2.17;;
31728;SDS011;18309;43.658;1.312;2023-04-15T09:23:39;17.48;;;1.95;;
31728;SDS011;18309;43.658;1.312;2023-04-15T09:26:06;17.58;;;2.13;;
31728;SDS011;18309;43.658;1.312;2023-04-15T09:28:32;18.60;;;1.90;;
31728;SDS011;18309;43.658;1.312;2023-04-15T09:31:04;9.38;;;1.40;;
31728;SDS011;18309;43.658;1.312;2023-04-15T09:33:31;14.07;;;1.90;;
31728;SDS011;18309;43.658;1.312;2023-04-15T09:36:00;12.77;;;2.10;;
31728;SDS011;18309;43.658;1.312;2023-04-15T09:40:53;17.10;;;2.13;;
31728;SDS011;18309;43.658;1.312;2023-04-15T09:43:19;17.33;;;1.70;;
31728;SDS011;18309;43.658;1.312;2023-04-15T09:45:49;10.80;;;1.35;;
31728;SDS011;18309;43.658;1.312;2023-04-15T09:48:23;13.77;;;1.55;;
31728;SDS011;18309;43.658;1.312;2023-04-15T09:50:56;11.07;;;2.10;;
31728;SDS011;18309;43.658;1.312;2023-04-15T09:53:23;18.90;;;2.67;;
31728;SDS011;18309;43.658;1.312;2023-04-15T09:55:56;16.20;;;1.65;;
31728;SDS011;18309;43.658;1.312;2023-04-15T09:58:26;9.32;;;1.73;;
31728;SDS011;18309;43.658;1.312;2023-04-15T10:00:54;17.15;;;1.88;;
31728;SDS011;18309;43.658;1.312;2023-04-15T10:05:49;19.45;;;1.90;;
31728;SDS011;18309;43.658;1.312;2023-04-15T10:08:16;17.25;;;1.85;;
31728;SDS011;18309;43.658;1.312;2023-04-15T10:10:44;13.52;;;2.00;;
31728;SDS011;18309;43.658;1.312;2023-04-15T10:13:12;12.35;;;1.77;;
31728;SDS011;18309;43.658;1.312;2023-04-15T10:16:09;7.43;;;1.58;;
31728;SDS011;18309;43.658;1.312;2023-04-15T10:18:42;15.18;;;1.40;;
31728;SDS011;18309;43.658;1.312;2023-04-15T10:21:08;8.30;;;1.55;;
31728;SDS011;18309;43.658;1.312;2023-04-15T10:23:34;9.50;;;3.10;;
31728;SDS011;18309;43.658;1.312;2023-04-15T10:26:00;9.00;;;3.30;;
31728;SDS011;18309;43.658;1.312;2023-04-15T10:28:28;12.70;;;2.08;;
31728;SDS011;18309;43.658;1.312;2023-04-15T10:30:54;10.65;;;1.77;;
31728;SDS011;18309;43.658;1.312;2023-04-15T10:33:21;19.35;;;2.95;;
31728;SDS011;18309;43.658;1.312;2023-04-15T10:35:48;6.93;;;1.45;;
31728;SDS011;18309;43.658;1.312;2023-04-15T10:46:21;12.55;;;1.50;;
31728;SDS011;18309;43.658;1.312;2023-04-15T10:48:50;10.70;;;1.70;;
31728;SDS011;18309;43.658;1.312;2023-04-15T10:51:29;7.53;;;1.45;;
31728;SDS011;18309;43.658;1.312;2023-04-15T10:53:57;7.82;;;1.17;;
31728;SDS011;18309;43.658;1.312;2023-04-15T10:56:24;10.18;;;1.95;;
31728;SDS011;18309;43.658;1.312;2023-04-15T10:58:50;11.15;;;1.38;;
31728;SDS011;18309;43.658;1.312;2023-04-15T11:01:16;5.70;;;1.20;;
31728;SDS011;18309;43.658;1.312;2023-04-15T11:03:44;11.85;;;1.27;;
31728;SDS011;18309;43.658;1.312;2023-04-15T11:06:10;10.85;;;1.10;;
31728;SDS011;18309;43.658;1.312;2023-04-15T11:08:52;8.35;;;1.20;;
31728;SDS011;18309;43.658;1.312;2023-04-15T11:11:43;12.90;;;1.55;;
31728;SDS011;18309;43.658;1.312;2023-04-15T11:14:27;9.13;;;1.38;;
31728;SDS011;18309;43.658;1.312;2023-04-15T11:16:52;13.05;;;1.73;;
31728;SDS011;18309;43.658;1.312;2023-04-15T11:19:18;8.82;;;1.20;;
31728;SDS011;18309;43.658;1.312;2023-04-15T11:21:46;17.98;;;1.80;;
31728;SDS011;18309;43.658;1.312;2023-04-15T11:24:22;12.45;;;1.63;;
31728;SDS011;18309;43.658;1.312;2023-04-15T11:26:55;17.00;;;1.55;;
31728;SDS011;18309;43.658;1.312;2023-04-15T11:29:27;9.18;;;1.33;;
31728;SDS011;18309;43.658;1.312;2023-04-15T11:32:03;11.98;;;1.63;;
31728;SDS011;18309;43.658;1.312;2023-04-15T11:34:30;12.75;;;1.90;;
31728;SDS011;18309;43.658;1.312;2023-04-15T11:36:56;8.98;;;1.02;;
31728;SDS011;18309;43.658;1.312;2023-04-15T11:39:22;10.18;;;1.23;;
31728;SDS011;18309;43.658;1.312;2023-04-15T11:41:48;10.75;;;1.40;;
31728;SDS011;18309;43.658;1.312;2023-04-15T11:44:17;11.35;;;2.05;;
31728;SDS011;18309;43.658;1.312;2023-04-15T11:46:42;11.13;;;1.15;;
31728;SDS011;18309;43.658;1.312;2023-04-15T11:49:08;9.43;;;1.38;;
31728;SDS011;18309;43.658;1.312;2023-04-15T11:51:34;7.88;;;1.55;;
31728;SDS011;18309;43.658;1.312;2023-04-15T11:54:00;11.90;;;1.48;;
31728;SDS011;18309;43.658;1.312;2023-04-15T11:56:26;10.05;;;1.58;;
31728;SDS011;18309;43.658;1.312;2023-04-15T11:58:52;9.75;;;1.15;;
31728;SDS011;18309;43.658;1.312;2023-04-15T12:01:20;10.77;;;1.35;;
31728;SDS011;18309;43.658;1.312;2023-04-15T12:04:10;10.52;;;1.88;;
31728;SDS011;18309;43.658;1.312;2023-04-15T12:06:43;7.45;;;1.30;;
31728;SDS011;18309;43.658;1.312;2023-04-15T12:09:12;5.50;;;0.95;;
31728;SDS011;18309;43.658;1.312;2023-04-15T12:16:47;13.13;;;1.10;;
31728;SDS011;18309;43.658;1.312;2023-04-15T12:19:15;6.22;;;1.20;;
31728;SDS011;18309;43.658;1.312;2023-04-15T12:21:44;11.50;;;1.55;;
31728;SDS011;18309;43.658;1.312;2023-04-15T12:24:11;12.95;;;1.27;;
31728;SDS011;18309;43.658;1.312;2023-04-15T12:29:06;8.18;;;1.20;;
31728;SDS011;18309;43.658;1.312;2023-04-15T12:31:36;8.75;;;1.17;;
31728;SDS011;18309;43.658;1.312;2023-04-15T12:34:10;6.47;;;1.23;;
31728;SDS011;18309;43.658;1.312;2023-04-15T12:36:36;10.88;;;1.52;;
31728;SDS011;18309;43.658;1.312;2023-04-15T12:39:02;7.90;;;1.85;;
31728;SDS011;18309;43.658;1.312;2023-04-15T12:41:29;11.48;;;1.65;;
31728;SDS011;18309;43.658;1.312;2023-04-15T12:43:55;5.53;;;1.45;;
31728;SDS011;18309;43.658;1.312;2023-04-15T12:46:21;9.95;;;1.30;;
31728;SDS011;18309;43.658;1.312;2023-04-15T12:48:47;11.07;;;1.70;;
31728;SDS011;18309;43.658;1.312;2023-04-15T12:51:13;6.15;;;1.17;;
31728;SDS011;18309;43.658;1.312;2023-04-15T12:53:39;7.90;;;1.20;;
31728;SDS011;18309;43.658;1.312;2023-04-15T12:56:05;13.70;;;1.67;;
31728;SDS011;18309;43.658;1.312;2023-04-15T12:58:31;7.53;;;1.30;;
31728;SDS011;18309;43.658;1.312;2023-04-15T13:00:57;6.45;;;1.17;;
31728;SDS011;18309;43.658;1.312;2023-04-15T13:03:23;8.50;;;1.20;;
31728;SDS011;18309;43.658;1.312;2023-04-15T13:05:49;8.25;;;1.48;;
31728;SDS011;18309;43.658;1.312;2023-04-15T13:08:15;5.95;;;1.38;;
31728;SDS011;18309;43.658;1.312;2023-04-15T13:10:40;4.72;;;0.98;;
31728;SDS011;18309;43.658;1.312;2023-04-15T13:13:06;9.63;;;1.38;;
31728;SDS011;18309;43.658;1.312;2023-04-15T13:15:32;6.95;;;1.30;;
31728;SDS011;18309;43.658;1.312;2023-04-15T13:17:58;8.48;;;0.75;;
31728;SDS011;18309;43.658;1.312;2023-04-15T13:20:24;8.70;;;1.20;;
31728;SDS011;18309;43.658;1.312;2023-04-15T13:22:51;9.25;;;1.50;;
31728;SDS011;18309;43.658;1.312;2023-04-15T13:25:17;9.10;;;1.42;;
31728;SDS011;18309;43.658;1.312;2023-04-15T13:27:43;4.00;;;0.88;;
31728;SDS011;18309;43.658;1.312;2023-04-15T13:30:09;8.25;;;1.55;;
31728;SDS011;18309;43.658;1.312;2023-04-15T13:32:34;4.97;;;1.00;;
31728;SDS011;18309;43.658;1.312;2023-04-15T13:35:00;8.95;;;2.10;;
31728;SDS011;18309;43.658;1.312;2023-04-15T13:37:26;6.88;;;1.35;;
31728;SDS011;18309;43.658;1.312;2023-04-15T13:39:53;7.75;;;0.95;;
31728;SDS011;18309;43.658;1.312;2023-04-15T13:42:20;6.03;;;1.10;;
31728;SDS011;18309;43.658;1.312;2023-04-15T13:44:46;8.45;;;1.27;;
31728;SDS011;18309;43.658;1.312;2023-04-15T13:47:12;6.78;;;0.80;;
31728;SDS011;18309;43.658;1.312;2023-04-15T13:49:40;7.40;;;1.35;;
31728;SDS011;18309;43.658;1.312;2023-04-15T13:52:05;6.38;;;0.93;;
31728;SDS011;18309;43.658;1.312;2023-04-15T13:54:31;2.90;;;0.70;;
31728;SDS011;18309;43.658;1.312;2023-04-15T13:56:57;6.22;;;0.70;;
31728;SDS011;18309;43.658;1.312;2023-04-15T13:59:23;13.05;;;1.13;;
31728;SDS011;18309;43.658;1.312;2023-04-15T14:01:49;5.97;;;0.98;;
31728;SDS011;18309;43.658;1.312;2023-04-15T14:04:15;9.65;;;1.30;;
31728;SDS011;18309;43.658;1.312;2023-04-15T14:06:40;10.55;;;1.38;;
31728;SDS011;18309;43.658;1.312;2023-04-15T14:09:06;7.05;;;1.42;;
31728;SDS011;18309;43.658;1.312;2023-04-15T14:11:32;16.50;;;1.35;;
31728;SDS011;18309;43.658;1.312;2023-04-15T14:14:00;5.05;;;1.10;;
31728;SDS011;18309;43.658;1.312;2023-04-15T14:16:26;7.82;;;1.63;;
31728;SDS011;18309;43.658;1.312;2023-04-15T14:18:52;11.38;;;1.23;;
31728;SDS011;18309;43.658;1.312;2023-04-15T14:21:17;5.43;;;1.00;;
31728;SDS011;18309;43.658;1.312;2023-04-15T14:23:43;4.20;;;0.77;;
31728;SDS011;18309;43.658;1.312;2023-04-15T14:26:09;5.90;;;0.93;;
31728;SDS011;18309;43.658;1.312;2023-04-15T14:28:35;7.15;;;1.00;;
31728;SDS011;18309;43.658;1.312;2023-04-15T14:31:02;7.43;;;1.20;;
31728;SDS011;18309;43.658;1.312;2023-04-15T14:33:28;7.10;;;1.00;;
31728;SDS011;18309;43.658;1.312;2023-04-15T14:35:53;3.35;;;0.93;;
31728;SDS011;18309;43.658;1.312;2023-04-15T14:38:19;11.13;;;0.98;;
31728;SDS011;18309;43.658;1.312;2023-04-15T14:40:46;3.17;;;0.65;;
31728;SDS011;18309;43.658;1.312;2023-04-15T14:43:12;7.43;;;1.35;;
31728;SDS011;18309;43.658;1.312;2023-04-15T14:45:38;8.02;;;0.95;;
31728;SDS011;18309;43.658;1.312;2023-04-15T14:48:04;7.45;;;1.25;;
31728;SDS011;18309;43.658;1.312;2023-04-15T14:50:30;5.88;;;0.93;;
31728;SDS011;18309;43.658;1.312;2023-04-15T14:52:57;4.63;;;0.73;;
31728;SDS011;18309;43.658;1.312;2023-04-15T14:55:23;6.35;;;1.05;;
31728;SDS011;18309;43.658;1.312;2023-04-15T14:57:49;7.50;;;1.13;;